Southard, Oklahoma
Current Conditions -  °F | °C
As of 7:15 PM on Saturday 25 Oct 2014 (Local Time) from KJWG Reporting Station
Clear Clear  
Wind Chill: 79°   Ceiling: Unl
Heat Index: 80°   Visibility: 10mi
Dew Point: 59°   Wind: 5mph
Humidity: 49%   Direction: 160°SSE
Pressure: 30.02"   Gusts: NA
Location:  36.06°N, 98.48°W
Report Text: KJWG 260015Z AUTO 16004KT 10SM CLR 26/15 A3002 RMK AO2 T02620148
Loading
Personal Weather Stations






























Interactive Weather Map
Tropical Storm Tracking
New forecast layout! Learn more

10-Day Weather Forecast

Advertisements
Track Severe Weather on mobile